sensor_id;sensor_type;location;lat;lon;timestamp;pressure;altitude;pressure_sealevel;temperature;humidity
37972;BME280;23794;48.234;8.344;2023-01-29T00:00:19;95118.28;;;-1.95;76.95
37972;BME280;23794;48.234;8.344;2023-01-29T00:02:46;95109.53;;;-1.87;76.54
37972;BME280;23794;48.234;8.344;2023-01-29T00:05:13;95112.13;;;-1.82;76.62
37972;BME280;23794;48.234;8.344;2023-01-29T00:08:00;95118.78;;;-1.79;76.05
37972;BME280;23794;48.234;8.344;2023-01-29T00:10:27;95108.84;;;-1.78;76.29
37972;BME280;23794;48.234;8.344;2023-01-29T00:12:53;95101.09;;;-1.80;75.78
37972;BME280;23794;48.234;8.344;2023-01-29T00:15:20;95098.69;;;-1.82;76.14
37972;BME280;23794;48.234;8.344;2023-01-29T00:17:47;95112.81;;;-1.76;75.86
37972;BME280;23794;48.234;8.344;2023-01-29T00:20:13;95108.38;;;-1.94;76.25
37972;BME280;23794;48.234;8.344;2023-01-29T00:22:41;95115.31;;;-1.93;76.16
37972;BME280;23794;48.234;8.344;2023-01-29T00:25:08;95114.72;;;-1.90;76.18
37972;BME280;23794;48.234;8.344;2023-01-29T00:27:34;95107.84;;;-1.83;75.95
37972;BME280;23794;48.234;8.344;2023-01-29T00:30:03;95100.38;;;-2.00;75.65
37972;BME280;23794;48.234;8.344;2023-01-29T00:32:39;95105.78;;;-2.14;75.43
37972;BME280;23794;48.234;8.344;2023-01-29T00:35:06;95108.84;;;-2.20;76.40
37972;BME280;23794;48.234;8.344;2023-01-29T00:37:34;95109.34;;;-2.18;76.15
37972;BME280;23794;48.234;8.344;2023-01-29T00:40:00;95120.84;;;-2.32;76.55
37972;BME280;23794;48.234;8.344;2023-01-29T00:42:27;95114.78;;;-2.37;76.83
37972;BME280;23794;48.234;8.344;2023-01-29T00:45:12;95102.97;;;-2.36;76.88
37972;BME280;23794;48.234;8.344;2023-01-29T00:47:39;95102.97;;;-2.22;77.02
37972;BME280;23794;48.234;8.344;2023-01-29T00:50:08;95098.50;;;-2.13;76.36
37972;BME280;23794;48.234;8.344;2023-01-29T00:52:36;95102.47;;;-2.10;76.46
37972;BME280;23794;48.234;8.344;2023-01-29T00:55:04;95092.94;;;-2.17;76.76
37972;BME280;23794;48.234;8.344;2023-01-29T00:57:32;95096.59;;;-2.13;76.37
37972;BME280;23794;48.234;8.344;2023-01-29T01:00:00;95087.75;;;-2.13;76.06
37972;BME280;23794;48.234;8.344;2023-01-29T01:02:27;95100.59;;;-2.10;75.71
37972;BME280;23794;48.234;8.344;2023-01-29T01:05:16;95097.91;;;-2.24;75.82
37972;BME280;23794;48.234;8.344;2023-01-29T01:07:54;95101.38;;;-2.23;75.03
37972;BME280;23794;48.234;8.344;2023-01-29T01:10:30;95108.34;;;-2.22;75.05
37972;BME280;23794;48.234;8.344;2023-01-29T01:13:05;95098.22;;;-2.25;75.19
37972;BME280;23794;48.234;8.344;2023-01-29T01:15:35;95097.41;;;-2.40;74.75
37972;BME280;23794;48.234;8.344;2023-01-29T01:18:02;95101.25;;;-2.46;75.68
37972;BME280;23794;48.234;8.344;2023-01-29T01:20:32;95100.19;;;-2.31;75.58
37972;BME280;23794;48.234;8.344;2023-01-29T01:22:59;95100.38;;;-2.28;75.02
37972;BME280;23794;48.234;8.344;2023-01-29T01:25:26;95095.41;;;-2.34;75.02
37972;BME280;23794;48.234;8.344;2023-01-29T01:27:54;95106.66;;;-2.18;74.92
37972;BME280;23794;48.234;8.344;2023-01-29T01:30:22;95101.19;;;-2.13;74.45
37972;BME280;23794;48.234;8.344;2023-01-29T01:32:49;95105.34;;;-2.21;74.07
37972;BME280;23794;48.234;8.344;2023-01-29T01:35:17;95104.53;;;-2.35;73.99
37972;BME280;23794;48.234;8.344;2023-01-29T01:37:43;95103.56;;;-2.25;74.68
37972;BME280;23794;48.234;8.344;2023-01-29T01:40:18;95108.94;;;-2.25;74.09
37972;BME280;23794;48.234;8.344;2023-01-29T01:42:57;95108.13;;;-2.26;73.89
37972;BME280;23794;48.234;8.344;2023-01-29T01:45:27;95111.81;;;-2.36;73.59
37972;BME280;23794;48.234;8.344;2023-01-29T01:48:22;95105.13;;;-2.24;73.68
37972;BME280;23794;48.234;8.344;2023-01-29T01:50:57;95105.56;;;-2.31;72.91
37972;BME280;23794;48.234;8.344;2023-01-29T01:53:33;95099.78;;;-2.71;72.85
37972;BME280;23794;48.234;8.344;2023-01-29T01:56:03;95096.03;;;-2.70;73.23
37972;BME280;23794;48.234;8.344;2023-01-29T01:58:36;95084.16;;;-2.50;73.71
37972;BME280;23794;48.234;8.344;2023-01-29T02:01:06;95082.47;;;-2.46;73.07
37972;BME280;23794;48.234;8.344;2023-01-29T02:03:48;95090.09;;;-2.53;73.33
37972;BME280;23794;48.234;8.344;2023-01-29T02:06:34;95088.50;;;-2.54;73.65
37972;BME280;23794;48.234;8.344;2023-01-29T02:09:28;95082.59;;;-2.37;73.83
37972;BME280;23794;48.234;8.344;2023-01-29T02:11:59;95084.59;;;-2.29;73.40
37972;BME280;23794;48.234;8.344;2023-01-29T02:14:26;95083.16;;;-2.40;73.08
37972;BME280;23794;48.234;8.344;2023-01-29T02:16:53;95082.84;;;-2.39;73.04
37972;BME280;23794;48.234;8.344;2023-01-29T02:19:48;95093.09;;;-2.55;72.38
37972;BME280;23794;48.234;8.344;2023-01-29T02:33:47;95100.50;;;-2.66;72.62
37972;BME280;23794;48.234;8.344;2023-01-29T02:36:34;95093.78;;;-2.49;73.19
37972;BME280;23794;48.234;8.344;2023-01-29T02:42:05;95098.28;;;-2.45;71.93
37972;BME280;23794;48.234;8.344;2023-01-29T02:47:21;95092.88;;;-2.58;72.46
37972;BME280;23794;48.234;8.344;2023-01-29T02:49:59;95104.03;;;-2.51;72.58
37972;BME280;23794;48.234;8.344;2023-01-29T02:52:37;95096.38;;;-2.44;72.80
37972;BME280;23794;48.234;8.344;2023-01-29T02:55:11;95096.69;;;-2.32;72.22
37972;BME280;23794;48.234;8.344;2023-01-29T02:57:42;95094.63;;;-2.35;71.72
37972;BME280;23794;48.234;8.344;2023-01-29T03:02:59;95112.53;;;-2.63;73.09
37972;BME280;23794;48.234;8.344;2023-01-29T03:05:38;95110.31;;;-2.75;72.75
37972;BME280;23794;48.234;8.344;2023-01-29T03:08:11;95116.88;;;-3.00;72.26
37972;BME280;23794;48.234;8.344;2023-01-29T03:10:53;95112.09;;;-3.03;73.30
37972;BME280;23794;48.234;8.344;2023-01-29T03:13:35;95120.66;;;-3.01;72.50
37972;BME280;23794;48.234;8.344;2023-01-29T03:16:14;95120.66;;;-3.01;72.69
37972;BME280;23794;48.234;8.344;2023-01-29T03:18:49;95114.13;;;-2.95;72.73
37972;BME280;23794;48.234;8.344;2023-01-29T03:21:28;95123.69;;;-2.89;71.13
37972;BME280;23794;48.234;8.344;2023-01-29T03:24:34;95112.59;;;-2.82;70.41
37972;BME280;23794;48.234;8.344;2023-01-29T03:27:26;95114.63;;;-2.93;70.67
37972;BME280;23794;48.234;8.344;2023-01-29T03:30:14;95107.00;;;-2.86;72.03
37972;BME280;23794;48.234;8.344;2023-01-29T03:33:24;95109.72;;;-3.05;70.86
37972;BME280;23794;48.234;8.344;2023-01-29T03:35:59;95102.84;;;-3.11;71.99
37972;BME280;23794;48.234;8.344;2023-01-29T03:38:28;95100.72;;;-2.95;71.64
37972;BME280;23794;48.234;8.344;2023-01-29T03:41:33;95100.66;;;-2.90;72.11
37972;BME280;23794;48.234;8.344;2023-01-29T03:44:22;95104.53;;;-2.82;71.76
37972;BME280;23794;48.234;8.344;2023-01-29T03:47:21;95102.88;;;-2.78;71.47
37972;BME280;23794;48.234;8.344;2023-01-29T03:50:19;95105.47;;;-2.73;71.13
37972;BME280;23794;48.234;8.344;2023-01-29T03:52:57;95105.13;;;-2.85;71.53
37972;BME280;23794;48.234;8.344;2023-01-29T03:56:06;95106.38;;;-2.97;71.78
37972;BME280;23794;48.234;8.344;2023-01-29T03:58:42;95103.03;;;-2.88;72.00
37972;BME280;23794;48.234;8.344;2023-01-29T04:04:11;95107.06;;;-2.72;72.00
37972;BME280;23794;48.234;8.344;2023-01-29T04:06:42;95105.31;;;-2.63;71.71
37972;BME280;23794;48.234;8.344;2023-01-29T04:09:22;95103.72;;;-2.64;71.07
37972;BME280;23794;48.234;8.344;2023-01-29T04:11:59;95109.94;;;-2.68;71.06
37972;BME280;23794;48.234;8.344;2023-01-29T04:14:30;95106.09;;;-2.62;72.34
37972;BME280;23794;48.234;8.344;2023-01-29T04:17:00;95114.66;;;-2.60;71.21
37972;BME280;23794;48.234;8.344;2023-01-29T04:19:40;95111.56;;;-2.53;71.14
37972;BME280;23794;48.234;8.344;2023-01-29T04:22:16;95110.66;;;-2.63;71.40
37972;BME280;23794;48.234;8.344;2023-01-29T04:24:46;95109.03;;;-2.78;70.74
37972;BME280;23794;48.234;8.344;2023-01-29T04:30:01;95108.94;;;-2.72;70.31
37972;BME280;23794;48.234;8.344;2023-01-29T04:35:28;95095.91;;;-2.79;70.54
37972;BME280;23794;48.234;8.344;2023-01-29T04:38:10;95100.47;;;-2.80;71.40
37972;BME280;23794;48.234;8.344;2023-01-29T04:40:48;95099.69;;;-2.80;70.28
37972;BME280;23794;48.234;8.344;2023-01-29T04:43:31;95091.72;;;-2.85;71.28
37972;BME280;23794;48.234;8.344;2023-01-29T04:46:15;95097.22;;;-2.77;70.60
37972;BME280;23794;48.234;8.344;2023-01-29T04:48:58;95090.19;;;-2.92;71.00
37972;BME280;23794;48.234;8.344;2023-01-29T04:51:50;95090.81;;;-2.95;71.30
37972;BME280;23794;48.234;8.344;2023-01-29T04:54:24;95084.38;;;-2.80;72.33
37972;BME280;23794;48.234;8.344;2023-01-29T04:59:47;95090.09;;;-2.67;71.30
37972;BME280;23794;48.234;8.344;2023-01-29T05:02:17;95087.56;;;-2.78;71.31
37972;BME280;23794;48.234;8.344;2023-01-29T05:04:45;95086.19;;;-2.75;71.23
37972;BME280;23794;48.234;8.344;2023-01-29T05:07:14;95088.88;;;-2.75;71.39
37972;BME280;23794;48.234;8.344;2023-01-29T05:09:44;95090.38;;;-2.69;71.86
37972;BME280;23794;48.234;8.344;2023-01-29T05:12:13;95093.72;;;-2.77;71.65
37972;BME280;23794;48.234;8.344;2023-01-29T05:14:43;95090.28;;;-2.97;71.75
37972;BME280;23794;48.234;8.344;2023-01-29T05:17:16;95095.03;;;-3.08;71.51
37972;BME280;23794;48.234;8.344;2023-01-29T05:19:44;95095.97;;;-2.98;71.77
37972;BME280;23794;48.234;8.344;2023-01-29T05:22:12;95097.31;;;-2.82;72.40
37972;BME280;23794;48.234;8.344;2023-01-29T05:24:41;95103.78;;;-2.69;71.39
37972;BME280;23794;48.234;8.344;2023-01-29T05:27:16;95099.28;;;-2.73;71.21
37972;BME280;23794;48.234;8.344;2023-01-29T05:30:02;95093.34;;;-2.70;71.89
37972;BME280;23794;48.234;8.344;2023-01-29T05:32:29;95095.88;;;-2.60;72.44
37972;BME280;23794;48.234;8.344;2023-01-29T05:34:56;95085.53;;;-2.53;71.61
37972;BME280;23794;48.234;8.344;2023-01-29T05:37:23;95091.69;;;-2.52;71.65
37972;BME280;23794;48.234;8.344;2023-01-29T05:39:49;95095.34;;;-2.62;71.32
37972;BME280;23794;48.234;8.344;2023-01-29T05:42:16;95102.28;;;-2.75;71.18
37972;BME280;23794;48.234;8.344;2023-01-29T05:44:43;95100.50;;;-2.66;71.46
37972;BME280;23794;48.234;8.344;2023-01-29T05:47:09;95104.84;;;-2.84;71.01
37972;BME280;23794;48.234;8.344;2023-01-29T05:49:36;95102.38;;;-2.80;71.00
37972;BME280;23794;48.234;8.344;2023-01-29T05:52:04;95105.84;;;-2.80;70.86
37972;BME280;23794;48.234;8.344;2023-01-29T05:54:30;95117.22;;;-2.88;71.29
37972;BME280;23794;48.234;8.344;2023-01-29T05:56:57;95116.22;;;-2.92;71.11
37972;BME280;23794;48.234;8.344;2023-01-29T05:59:24;95111.06;;;-2.88;71.62
37972;BME280;23794;48.234;8.344;2023-01-29T06:01:50;95113.09;;;-2.80;72.18
37972;BME280;23794;48.234;8.344;2023-01-29T06:04:17;95113.72;;;-2.69;72.45
37972;BME280;23794;48.234;8.344;2023-01-29T06:06:43;95097.53;;;-2.64;71.69
37972;BME280;23794;48.234;8.344;2023-01-29T06:09:10;95096.59;;;-2.73;70.59
37972;BME280;23794;48.234;8.344;2023-01-29T06:11:37;95092.16;;;-2.78;70.72
37972;BME280;23794;48.234;8.344;2023-01-29T06:14:04;95083.69;;;-2.71;71.37
37972;BME280;23794;48.234;8.344;2023-01-29T06:16:30;95081.91;;;-2.76;70.92
37972;BME280;23794;48.234;8.344;2023-01-29T06:18:57;95076.84;;;-2.78;70.61
37972;BME280;23794;48.234;8.344;2023-01-29T06:21:23;95061.94;;;-2.84;69.24
37972;BME280;23794;48.234;8.344;2023-01-29T06:23:53;95058.38;;;-2.79;70.03
37972;BME280;23794;48.234;8.344;2023-01-29T06:26:20;95059.09;;;-2.93;69.57
37972;BME280;23794;48.234;8.344;2023-01-29T06:28:49;95066.03;;;-3.05;70.32
37972;BME280;23794;48.234;8.344;2023-01-29T06:31:16;95080.13;;;-3.00;71.17
37972;BME280;23794;48.234;8.344;2023-01-29T06:34:04;95079.25;;;-2.95;70.99
37972;BME280;23794;48.234;8.344;2023-01-29T06:36:30;95089.22;;;-2.96;69.83
37972;BME280;23794;48.234;8.344;2023-01-29T06:38:57;95100.28;;;-3.02;70.10
37972;BME280;23794;48.234;8.344;2023-01-29T06:41:23;95105.09;;;-2.99;70.17
37972;BME280;23794;48.234;8.344;2023-01-29T06:43:53;95106.00;;;-2.90;70.45
37972;BME280;23794;48.234;8.344;2023-01-29T06:46:19;95098.66;;;-2.84;69.84
37972;BME280;23794;48.234;8.344;2023-01-29T06:48:46;95084.84;;;-2.92;69.75
37972;BME280;23794;48.234;8.344;2023-01-29T06:51:13;95096.75;;;-2.98;69.77
37972;BME280;23794;48.234;8.344;2023-01-29T06:53:39;95104.34;;;-3.05;69.85
37972;BME280;23794;48.234;8.344;2023-01-29T06:56:08;95096.00;;;-3.03;70.08
37972;BME280;23794;48.234;8.344;2023-01-29T06:58:37;95099.63;;;-2.94;70.12
37972;BME280;23794;48.234;8.344;2023-01-29T07:01:10;95099.84;;;-2.91;70.12
37972;BME280;23794;48.234;8.344;2023-01-29T07:03:50;95107.00;;;-2.86;70.56
37972;BME280;23794;48.234;8.344;2023-01-29T07:06:18;95107.84;;;-2.71;70.62
37972;BME280;23794;48.234;8.344;2023-01-29T07:08:44;95113.34;;;-2.63;70.36
37972;BME280;23794;48.234;8.344;2023-01-29T07:11:11;95118.13;;;-2.60;69.29
37972;BME280;23794;48.234;8.344;2023-01-29T07:13:37;95120.97;;;-2.70;69.47
37972;BME280;23794;48.234;8.344;2023-01-29T07:16:04;95130.31;;;-3.19;70.21
37972;BME280;23794;48.234;8.344;2023-01-29T07:18:32;95128.28;;;-3.09;70.13
37972;BME280;23794;48.234;8.344;2023-01-29T07:21:03;95125.44;;;-2.98;70.09
37972;BME280;23794;48.234;8.344;2023-01-29T07:23:29;95132.44;;;-2.83;70.22
37972;BME280;23794;48.234;8.344;2023-01-29T07:25:59;95120.16;;;-2.70;70.15
37972;BME280;23794;48.234;8.344;2023-01-29T07:28:26;95130.59;;;-2.69;69.69
37972;BME280;23794;48.234;8.344;2023-01-29T07:30:57;95135.38;;;-2.66;70.33
37972;BME280;23794;48.234;8.344;2023-01-29T07:33:24;95127.66;;;-2.53;70.10
37972;BME280;23794;48.234;8.344;2023-01-29T07:35:51;95128.94;;;-2.51;70.24
37972;BME280;23794;48.234;8.344;2023-01-29T07:38:18;95125.81;;;-2.39;69.63
37972;BME280;23794;48.234;8.344;2023-01-29T07:40:45;95127.50;;;-2.43;69.22
37972;BME280;23794;48.234;8.344;2023-01-29T07:43:12;95130.19;;;-2.43;68.60
37972;BME280;23794;48.234;8.344;2023-01-29T07:45:39;95127.00;;;-2.45;68.32
37972;BME280;23794;48.234;8.344;2023-01-29T07:48:09;95132.97;;;-2.48;68.21
37972;BME280;23794;48.234;8.344;2023-01-29T07:50:37;95115.84;;;-2.52;67.39
37972;BME280;23794;48.234;8.344;2023-01-29T07:53:03;95129.88;;;-2.55;68.36
37972;BME280;23794;48.234;8.344;2023-01-29T07:55:31;95122.22;;;-2.48;68.22
37972;BME280;23794;48.234;8.344;2023-01-29T07:58:00;95136.47;;;-2.34;68.93
37972;BME280;23794;48.234;8.344;2023-01-29T08:00:27;95135.78;;;-2.25;68.53
37972;BME280;23794;48.234;8.344;2023-01-29T08:03:01;95139.84;;;-2.28;68.12
37972;BME280;23794;48.234;8.344;2023-01-29T08:05:28;95147.91;;;-2.14;68.15
37972;BME280;23794;48.234;8.344;2023-01-29T08:07:54;95149.13;;;-2.06;67.52
37972;BME280;23794;48.234;8.344;2023-01-29T08:10:33;95161.75;;;-2.07;67.59
37972;BME280;23794;48.234;8.344;2023-01-29T08:13:00;95156.78;;;-2.14;66.93
37972;BME280;23794;48.234;8.344;2023-01-29T08:15:28;95156.00;;;-2.00;66.87
37972;BME280;23794;48.234;8.344;2023-01-29T08:17:55;95167.63;;;-2.05;66.95
37972;BME280;23794;48.234;8.344;2023-01-29T08:20:24;95168.31;;;-1.85;67.34
37972;BME280;23794;48.234;8.344;2023-01-29T08:22:58;95181.56;;;-1.75;66.29
37972;BME280;23794;48.234;8.344;2023-01-29T08:25:25;95175.97;;;-1.92;66.54
37972;BME280;23794;48.234;8.344;2023-01-29T08:27:53;95174.78;;;-1.86;66.97
37972;BME280;23794;48.234;8.344;2023-01-29T08:30:21;95177.59;;;-1.77;66.06
37972;BME280;23794;48.234;8.344;2023-01-29T08:32:47;95172.13;;;-1.58;66.53
37972;BME280;23794;48.234;8.344;2023-01-29T08:35:14;95174.81;;;-1.58;65.76
37972;BME280;23794;48.234;8.344;2023-01-29T08:37:40;95172.22;;;-1.64;64.63
37972;BME280;23794;48.234;8.344;2023-01-29T08:40:08;95162.56;;;-1.65;65.80
37972;BME280;23794;48.234;8.344;2023-01-29T08:42:36;95171.03;;;-1.57;65.72
37972;BME280;23794;48.234;8.344;2023-01-29T08:45:03;95167.66;;;-1.63;66.43
37972;BME280;23794;48.234;8.344;2023-01-29T08:47:30;95167.63;;;-1.77;66.48
37972;BME280;23794;48.234;8.344;2023-01-29T08:49:56;95161.09;;;-1.85;66.67
37972;BME280;23794;48.234;8.344;2023-01-29T08:52:23;95168.00;;;-2.12;66.83
37972;BME280;23794;48.234;8.344;2023-01-29T08:54:50;95169.19;;;-2.18;66.66
37972;BME280;23794;48.234;8.344;2023-01-29T08:57:16;95181.84;;;-2.18;66.94
37972;BME280;23794;48.234;8.344;2023-01-29T08:59:43;95177.56;;;-2.05;66.64
37972;BME280;23794;48.234;8.344;2023-01-29T09:02:10;95183.34;;;-1.98;66.54
37972;BME280;23794;48.234;8.344;2023-01-29T09:04:37;95194.50;;;-1.91;66.39
37972;BME280;23794;48.234;8.344;2023-01-29T09:07:03;95196.38;;;-1.91;66.50
37972;BME280;23794;48.234;8.344;2023-01-29T09:09:30;95204.13;;;-1.90;65.84
37972;BME280;23794;48.234;8.344;2023-01-29T09:11:56;95201.06;;;-1.83;66.12
37972;BME280;23794;48.234;8.344;2023-01-29T09:14:23;95202.06;;;-1.79;66.13
37972;BME280;23794;48.234;8.344;2023-01-29T09:16:50;95199.28;;;-1.74;67.34
37972;BME280;23794;48.234;8.344;2023-01-29T09:19:17;95196.38;;;-1.64;66.63
37972;BME280;23794;48.234;8.344;2023-01-29T09:21:44;95197.09;;;-1.58;66.03
37972;BME280;23794;48.234;8.344;2023-01-29T09:24:11;95193.22;;;-1.66;65.61
37972;BME280;23794;48.234;8.344;2023-01-29T09:26:37;95195.91;;;-1.66;66.90
37972;BME280;23794;48.234;8.344;2023-01-29T09:29:05;95198.00;;;-1.49;67.35
37972;BME280;23794;48.234;8.344;2023-01-29T09:31:32;95203.56;;;-1.45;65.82
37972;BME280;23794;48.234;8.344;2023-01-29T09:33:59;95202.56;;;-1.63;65.40
37972;BME280;23794;48.234;8.344;2023-01-29T09:36:26;95199.88;;;-1.49;65.75
37972;BME280;23794;48.234;8.344;2023-01-29T09:38:52;95198.47;;;-1.33;65.17
37972;BME280;23794;48.234;8.344;2023-01-29T09:41:23;95194.88;;;-1.28;64.83
37972;BME280;23794;48.234;8.344;2023-01-29T09:43:59;95197.75;;;-1.10;64.76
37972;BME280;23794;48.234;8.344;2023-01-29T09:46:39;95201.84;;;-1.13;63.95
37972;BME280;23794;48.234;8.344;2023-01-29T09:49:11;95190.00;;;-1.12;65.33
37972;BME280;23794;48.234;8.344;2023-01-29T09:51:44;95200.31;;;-1.05;65.18
37972;BME280;23794;48.234;8.344;2023-01-29T09:54:29;95199.59;;;-0.97;64.21
37972;BME280;23794;48.234;8.344;2023-01-29T09:56:57;95201.84;;;-1.13;64.22
37972;BME280;23794;48.234;8.344;2023-01-29T09:59:26;95198.25;;;-1.08;64.10
37972;BME280;23794;48.234;8.344;2023-01-29T10:05:18;95187.06;;;-1.02;64.10
37972;BME280;23794;48.234;8.344;2023-01-29T10:10:49;95184.19;;;-0.69;64.38
37972;BME280;23794;48.234;8.344;2023-01-29T10:13:42;95170.38;;;-0.53;62.57
37972;BME280;23794;48.234;8.344;2023-01-29T10:24:37;95164.91;;;-0.39;62.79
37972;BME280;23794;48.234;8.344;2023-01-29T10:27:11;95150.97;;;-0.10;63.03
37972;BME280;23794;48.234;8.344;2023-01-29T10:29:41;95145.38;;;0.09;62.78
37972;BME280;23794;48.234;8.344;2023-01-29T10:32:14;95145.88;;;0.20;62.42
37972;BME280;23794;48.234;8.344;2023-01-29T10:34:47;95136.78;;;0.07;61.02
37972;BME280;23794;48.234;8.344;2023-01-29T10:37:18;95128.78;;;0.34;61.91
37972;BME280;23794;48.234;8.344;2023-01-29T10:39:46;95119.66;;;0.61;60.00
37972;BME280;23794;48.234;8.344;2023-01-29T10:42:27;95126.03;;;0.83;59.80
37972;BME280;23794;48.234;8.344;2023-01-29T10:45:26;95118.91;;;0.78;58.91
37972;BME280;23794;48.234;8.344;2023-01-29T10:50:58;95124.59;;;0.68;59.91
37972;BME280;23794;48.234;8.344;2023-01-29T10:53:47;95123.84;;;1.11;59.25
37972;BME280;23794;48.234;8.344;2023-01-29T10:56:36;95123.97;;;1.41;57.59
37972;BME280;23794;48.234;8.344;2023-01-29T10:59:33;95118.28;;;1.16;58.17
37972;BME280;23794;48.234;8.344;2023-01-29T11:02:13;95125.22;;;0.65;58.39
37972;BME280;23794;48.234;8.344;2023-01-29T11:04:40;95128.69;;;0.39;59.07
37972;BME280;23794;48.234;8.344;2023-01-29T11:07:07;95133.47;;;0.68;59.93
37972;BME280;23794;48.234;8.344;2023-01-29T11:09:41;95133.03;;;0.75;58.66
37972;BME280;23794;48.234;8.344;2023-01-29T11:12:15;95128.28;;;0.89;58.71
37972;BME280;23794;48.234;8.344;2023-01-29T11:14:48;95124.78;;;1.15;58.83
37972;BME280;23794;48.234;8.344;2023-01-29T11:17:23;95123.22;;;1.14;57.56
37972;BME280;23794;48.234;8.344;2023-01-29T11:19:51;95124.78;;;1.33;58.45
37972;BME280;23794;48.234;8.344;2023-01-29T11:22:26;95123.06;;;1.19;58.93
37972;BME280;23794;48.234;8.344;2023-01-29T11:25:28;95117.00;;;1.14;57.23
37972;BME280;23794;48.234;8.344;2023-01-29T11:27:59;95119.25;;;0.94;57.50
37972;BME280;23794;48.234;8.344;2023-01-29T11:30:34;95117.50;;;0.89;58.91
37972;BME280;23794;48.234;8.344;2023-01-29T11:33:20;95119.56;;;1.19;58.53
37972;BME280;23794;48.234;8.344;2023-01-29T11:35:49;95115.72;;;1.20;58.18
37972;BME280;23794;48.234;8.344;2023-01-29T11:38:22;95109.84;;;1.35;57.52
37972;BME280;23794;48.234;8.344;2023-01-29T11:40:49;95104.00;;;1.33;57.32
37972;BME280;23794;48.234;8.344;2023-01-29T11:43:29;95101.31;;;1.16;57.54
37972;BME280;23794;48.234;8.344;2023-01-29T11:46:00;95098.44;;;1.12;57.98
37972;BME280;23794;48.234;8.344;2023-01-29T11:48:33;95094.94;;;1.12;57.96
37972;BME280;23794;48.234;8.344;2023-01-29T11:51:07;95095.25;;;1.36;57.83
37972;BME280;23794;48.234;8.344;2023-01-29T11:56:15;95104.09;;;1.54;58.46
37972;BME280;23794;48.234;8.344;2023-01-29T11:58:43;95101.69;;;1.71;57.97
37972;BME280;23794;48.234;8.344;2023-01-29T12:01:14;95098.38;;;1.65;57.27
37972;BME280;23794;48.234;8.344;2023-01-29T12:03:53;95103.78;;;1.65;56.67
37972;BME280;23794;48.234;8.344;2023-01-29T12:06:28;95098.28;;;1.35;57.38
37972;BME280;23794;48.234;8.344;2023-01-29T12:09:00;95098.91;;;1.32;58.87
37972;BME280;23794;48.234;8.344;2023-01-29T12:11:30;95088.81;;;1.67;57.99
37972;BME280;23794;48.234;8.344;2023-01-29T12:14:02;95074.31;;;1.90;57.31
37972;BME280;23794;48.234;8.344;2023-01-29T12:16:42;95067.84;;;2.12;56.26
37972;BME280;23794;48.234;8.344;2023-01-29T12:19:53;95057.50;;;2.44;56.54
37972;BME280;23794;48.234;8.344;2023-01-29T12:22:30;95062.44;;;2.42;55.63
37972;BME280;23794;48.234;8.344;2023-01-29T12:25:20;95058.81;;;2.59;55.21
37972;BME280;23794;48.234;8.344;2023-01-29T12:28:03;95057.88;;;2.33;55.44
37972;BME280;23794;48.234;8.344;2023-01-29T12:34:11;95051.78;;;2.67;55.04
37972;BME280;23794;48.234;8.344;2023-01-29T12:36:55;95049.59;;;3.02;55.53
37972;BME280;23794;48.234;8.344;2023-01-29T12:39:24;95051.19;;;3.37;55.78
37972;BME280;23794;48.234;8.344;2023-01-29T12:42:04;95039.50;;;3.45;53.95
37972;BME280;23794;48.234;8.344;2023-01-29T12:44:40;95043.25;;;3.65;54.10
37972;BME280;23794;48.234;8.344;2023-01-29T12:47:16;95030.63;;;3.82;54.35
37972;BME280;23794;48.234;8.344;2023-01-29T12:49:48;95021.78;;;3.72;52.46
37972;BME280;23794;48.234;8.344;2023-01-29T12:52:35;95029.38;;;3.91;52.14
37972;BME280;23794;48.234;8.344;2023-01-29T12:55:14;95015.41;;;3.89;51.20
37972;BME280;23794;48.234;8.344;2023-01-29T13:00:20;95005.84;;;3.46;53.01
37972;BME280;23794;48.234;8.344;2023-01-29T13:02:55;95007.41;;;3.01;53.66
37972;BME280;23794;48.234;8.344;2023-01-29T13:05:35;95005.91;;;2.70;54.51
37972;BME280;23794;48.234;8.344;2023-01-29T13:08:12;95008.28;;;2.29;55.54
37972;BME280;23794;48.234;8.344;2023-01-29T13:10:42;94993.94;;;2.08;55.98
37972;BME280;23794;48.234;8.344;2023-01-29T13:15:58;94979.72;;;2.41;56.11
37972;BME280;23794;48.234;8.344;2023-01-29T13:18:45;94964.94;;;2.59;54.82
37972;BME280;23794;48.234;8.344;2023-01-29T13:21:22;94964.13;;;2.80;54.56
37972;BME280;23794;48.234;8.344;2023-01-29T13:23:53;94957.47;;;3.11;54.12
37972;BME280;23794;48.234;8.344;2023-01-29T13:26:21;94954.66;;;3.20;54.42
37972;BME280;23794;48.234;8.344;2023-01-29T13:28:50;94954.72;;;2.99;54.46
37972;BME280;23794;48.234;8.344;2023-01-29T13:31:26;94959.44;;;2.89;55.38
37972;BME280;23794;48.234;8.344;2023-01-29T13:34:12;94958.97;;;2.87;55.66
37972;BME280;23794;48.234;8.344;2023-01-29T13:36:46;94949.25;;;2.86;56.47
37972;BME280;23794;48.234;8.344;2023-01-29T13:39:37;94934.38;;;2.80;56.21
37972;BME280;23794;48.234;8.344;2023-01-29T13:42:23;94930.41;;;2.77;56.92
37972;BME280;23794;48.234;8.344;2023-01-29T13:44:53;94933.13;;;2.56;57.27
37972;BME280;23794;48.234;8.344;2023-01-29T13:47:32;94926.78;;;2.40;58.15
37972;BME280;23794;48.234;8.344;2023-01-29T13:50:22;94923.97;;;2.70;58.93
37972;BME280;23794;48.234;8.344;2023-01-29T13:55:23;94928.81;;;2.43;57.14
37972;BME280;23794;48.234;8.344;2023-01-29T13:57:58;94924.13;;;2.31;58.09
37972;BME280;23794;48.234;8.344;2023-01-29T14:08:00;94933.97;;;1.84;59.23
37972;BME280;23794;48.234;8.344;2023-01-29T14:10:39;94945.06;;;1.62;60.64
37972;BME280;23794;48.234;8.344;2023-01-29T14:15:37;94944.13;;;1.58;61.15
37972;BME280;23794;48.234;8.344;2023-01-29T14:20:38;94934.84;;;1.37;61.17
37972;BME280;23794;48.234;8.344;2023-01-29T14:34:06;94961.19;;;0.93;63.50
37972;BME280;23794;48.234;8.344;2023-01-29T14:36:41;94959.72;;;0.96;63.88
37972;BME280;23794;48.234;8.344;2023-01-29T14:39:27;94957.34;;;1.03;64.47
37972;BME280;23794;48.234;8.344;2023-01-29T14:41:55;94949.34;;;1.15;63.63
37972;BME280;23794;48.234;8.344;2023-01-29T14:52:44;94967.53;;;0.88;63.72
37972;BME280;23794;48.234;8.344;2023-01-29T14:55:28;94977.56;;;0.62;63.95
37972;BME280;23794;48.234;8.344;2023-01-29T14:57:57;94979.78;;;0.51;64.58
37972;BME280;23794;48.234;8.344;2023-01-29T15:00:30;94981.19;;;0.48;65.12
37972;BME280;23794;48.234;8.344;2023-01-29T15:03:00;94977.25;;;0.37;64.94
37972;BME280;23794;48.234;8.344;2023-01-29T15:05:31;94986.44;;;0.36;64.55
37972;BME280;23794;48.234;8.344;2023-01-29T15:08:22;94996.72;;;0.25;64.94